Time;durP1;ratioP1;P1;durP2;ratioP2;P2;SDS_P1;SDS_P2;PMS_P1;PMS_P2;Temp;Humidity;BMP_temperature;BMP_pressure;BME280_temperature;BME280_humidity;BME280_pressure;Samples;Min_cycle;Max_cycle;Signal;HPM_P1;HPM_P2
2022/07/07 00:00:14;;;;;;;2.13;0.80;;;;;;;16.56;60.68;99180.06;4087329;29;20239;-54
2022/07/07 00:02:18;;;;;;;1.52;0.90;;;;;;;16.49;60.91;99176.72;4084294;28;20208;-53
2022/07/07 00:04:20;;;;;;;2.17;0.98;;;;;;;16.51;60.64;99160.72;4088214;28;20248;-54
2022/07/07 00:06:22;;;;;;;2.50;1.10;;;;;;;16.48;60.71;99164.03;4088082;29;20267;-53
2022/07/07 00:08:23;;;;;;;1.27;1.17;;;;;;;16.27;60.84;99150.38;4104109;28;20222;-54
2022/07/07 00:10:25;;;;;;;1.55;1.20;;;;;;;16.00;61.21;99156.09;4070457;29;21059;-54
2022/07/07 00:12:27;;;;;;;2.05;1.08;;;;;;;16.05;61.43;99150.59;4089019;28;20215;-54
2022/07/07 00:14:30;;;;;;;3.05;1.20;;;;;;;16.14;61.22;99160.00;4087475;29;20263;-54
2022/07/07 00:16:32;;;;;;;1.13;1.00;;;;;;;16.26;61.27;99160.63;4059413;29;20614;-54
2022/07/07 00:18:34;;;;;;;1.10;1.00;;;;;;;16.36;60.76;99166.16;4070745;29;20705;-55
2022/07/07 00:20:36;;;;;;;0.98;0.80;;;;;;;16.46;60.36;99160.72;4094640;28;20266;-54
2022/07/07 00:22:38;;;;;;;1.10;1.00;;;;;;;16.53;60.62;99161.28;4085703;29;20287;-53
2022/07/07 00:24:39;;;;;;;2.85;1.00;;;;;;;16.55;60.44;99170.13;4088171;28;20250;-52
2022/07/07 00:26:41;;;;;;;1.45;1.10;;;;;;;16.60;60.56;99167.38;4078175;29;20208;-54
2022/07/07 00:28:43;;;;;;;2.35;1.25;;;;;;;16.57;60.99;99167.91;4069063;29;20208;-54
2022/07/07 00:30:45;;;;;;;1.98;1.00;;;;;;;16.57;60.81;99167.91;4102433;28;20211;-53
2022/07/07 00:32:47;;;;;;;1.35;0.95;;;;;;;16.56;60.92;99165.44;4088824;29;20618;-54
2022/07/07 00:34:49;;;;;;;6.30;1.13;;;;;;;16.54;60.60;99162.94;4055384;29;20277;-54
2022/07/07 00:36:50;;;;;;;2.05;1.00;;;;;;;16.55;61.03;99156.31;4072704;29;20626;-53
2022/07/07 00:38:52;;;;;;;1.17;0.93;;;;;;;16.54;61.08;99154.66;4076518;29;20651;-54
2022/07/07 00:40:54;;;;;;;1.85;0.95;;;;;;;16.52;61.22;99154.09;4060808;29;20216;-55
2022/07/07 00:42:57;;;;;;;1.00;0.90;;;;;;;16.49;61.26;99148.28;4093086;29;20281;-53
2022/07/07 00:44:59;;;;;;;2.78;1.08;;;;;;;16.48;61.28;99150.22;4071683;29;20330;-53
2022/07/07 00:47:01;;;;;;;3.45;1.27;;;;;;;16.51;61.66;99160.72;4068930;29;20280;-53
2022/07/07 00:49:03;;;;;;;2.03;1.20;;;;;;;16.50;61.31;99164.56;4086866;29;21000;-53
2022/07/07 00:51:06;;;;;;;1.40;1.00;;;;;;;16.47;61.52;99162.38;4073058;29;20673;-53
2022/07/07 00:53:08;;;;;;;1.13;0.90;;;;;;;16.46;61.40;99160.72;4083413;29;20646;-53
2022/07/07 00:55:09;;;;;;;1.65;1.15;;;;;;;16.42;61.79;99164.28;4077375;29;20227;-53
2022/07/07 00:57:11;;;;;;;2.35;1.30;;;;;;;16.36;61.24;99160.63;4102396;28;20212;-54
2022/07/07 00:59:29;;;;;;;3.05;1.40;;;;;;;16.31;61.71;99146.84;4084940;29;20239;-54
2022/07/07 01:01:40;;;;;;;1.35;1.10;;;;;;;16.24;61.75;99154.50;4071226;29;20212;-53
2022/07/07 01:03:42;;;;;;;1.00;0.90;;;;;;;16.22;61.84;99142.09;4062063;29;21011;-54
2022/07/07 01:05:48;;;;;;;2.88;1.17;;;;;;;16.13;62.01;99141.78;4057100;29;20209;-53
2022/07/07 01:07:51;;;;;;;1.13;1.02;;;;;;;16.09;62.07;99145.38;4075071;29;20632;-54
2022/07/07 01:09:54;;;;;;;2.22;1.48;;;;;;;16.04;62.00;99139.81;4074606;29;20581;-54
2022/07/07 01:11:57;;;;;;;3.25;1.20;;;;;;;16.02;61.92;99137.31;4072785;29;20208;-54
2022/07/07 01:13:59;;;;;;;2.72;1.30;;;;;;;15.89;62.23;99132.28;4085548;29;20676;-54
2022/07/07 01:16:01;;;;;;;1.40;1.30;;;;;;;15.84;62.36;99135.00;4089729;28;20565;-53
2022/07/07 01:18:04;;;;;;;1.30;1.20;;;;;;;15.87;62.12;99140.00;4072211;29;20207;-54
2022/07/07 01:20:08;;;;;;;2.25;1.15;;;;;;;15.88;62.33;99133.38;4093289;29;20235;-53
2022/07/07 01:22:13;;;;;;;1.55;1.20;;;;;;;15.90;62.11;99144.97;4085816;29;20263;-53
2022/07/07 01:24:15;;;;;;;2.95;1.30;;;;;;;15.90;62.16;99128.41;4100619;28;20231;-54
2022/07/07 01:26:17;;;;;;;1.17;0.90;;;;;;;15.87;62.85;99128.97;4107694;28;20306;-53
2022/07/07 01:28:19;;;;;;;2.95;1.20;;;;;;;15.87;62.46;99126.22;4086079;28;20212;-53
2022/07/07 01:30:20;;;;;;;1.33;1.23;;;;;;;15.80;62.67;99133.06;4100531;28;20234;-55
2022/07/07 01:32:23;;;;;;;1.45;1.35;;;;;;;15.70;62.89;99120.03;4078445;29;20641;-54
2022/07/07 01:34:25;;;;;;;2.53;1.27;;;;;;;15.52;63.14;99115.00;4066666;29;20204;-54
2022/07/07 01:36:27;;;;;;;1.52;1.08;;;;;;;15.27;63.63;99112.03;4086993;29;20208;-53
2022/07/07 01:38:28;;;;;;;1.20;1.02;;;;;;;15.29;63.71;99120.88;4118195;28;20226;-53
2022/07/07 01:40:30;;;;;;;1.80;1.00;;;;;;;15.35;63.46;99117.09;4074004;29;20259;-53
2022/07/07 01:42:32;;;;;;;1.45;1.20;;;;;;;15.34;63.76;99111.81;4104005;28;20207;-54
2022/07/07 01:44:38;;;;;;;2.53;1.90;;;;;;;15.39;63.59;99115.47;4083994;29;20303;-53
2022/07/07 01:46:40;;;;;;;5.07;1.40;;;;;;;15.45;63.35;99114.41;4087626;28;20275;-54
2022/07/07 01:48:42;;;;;;;1.23;1.13;;;;;;;15.52;63.25;99108.63;4082386;29;20211;-54
2022/07/07 01:50:43;;;;;;;4.63;1.42;;;;;;;15.55;63.21;99108.94;4075437;29;20211;-55
2022/07/07 01:52:45;;;;;;;1.67;1.42;;;;;;;15.55;63.26;99105.38;4086537;29;20549;-55
2022/07/07 01:54:47;;;;;;;1.95;1.20;;;;;;;15.61;63.01;99107.88;4085772;29;20212;-52
2022/07/07 01:56:49;;;;;;;1.55;1.20;;;;;;;15.61;63.16;99107.03;4087070;29;20250;-54
2022/07/07 01:58:50;;;;;;;1.58;1.45;;;;;;;15.67;62.98;99098.50;4070232;29;20564;-53
2022/07/07 02:00:52;;;;;;;5.18;1.45;;;;;;;15.65;63.31;99106.25;4071296;29;20204;-54
2022/07/07 02:02:54;;;;;;;1.63;0.95;;;;;;;15.69;63.31;99115.63;4078222;29;20216;-53
2022/07/07 02:04:56;;;;;;;2.05;1.05;;;;;;;15.72;62.98;99108.75;4074045;29;20303;-54
2022/07/07 02:06:58;;;;;;;1.08;0.88;;;;;;;15.76;63.30;99113.44;4076918;29;20211;-53
2022/07/07 02:09:00;;;;;;;1.75;1.23;;;;;;;15.78;63.21;99110.44;4078688;29;20373;-53
2022/07/07 02:11:14;;;;;;;1.38;1.27;;;;;;;15.79;62.86;99110.16;4095162;29;20211;-55
2022/07/07 02:13:15;;;;;;;2.10;0.98;;;;;;;15.81;62.92;99110.72;4088510;28;20248;-53
2022/07/07 02:15:17;;;;;;;1.08;0.98;;;;;;;15.67;63.31;99103.19;4089311;29;20220;-54
2022/07/07 02:17:19;;;;;;;1.42;1.33;;;;;;;15.68;63.18;99113.97;4089109;29;20207;-53
2022/07/07 02:19:20;;;;;;;2.05;1.30;;;;;;;15.68;62.95;99108.44;4090266;28;20230;-54
2022/07/07 02:21:22;;;;;;;1.15;1.05;;;;;;;15.78;62.67;99113.19;4091161;29;20210;-54
2022/07/07 02:23:24;;;;;;;1.77;1.60;;;;;;;15.71;62.81;99107.91;4088800;29;20252;-54
2022/07/07 02:25:29;;;;;;;1.50;1.20;;;;;;;15.66;62.82;99107.91;4095374;29;20662;-54
2022/07/07 02:27:31;;;;;;;2.83;1.40;;;;;;;15.46;63.12;99106.94;4088303;28;20259;-53
2022/07/07 02:29:32;;;;;;;1.90;1.10;;;;;;;15.26;63.78;99098.50;4088450;29;20227;-54
2022/07/07 02:31:34;;;;;;;1.48;1.05;;;;;;;15.15;63.91;99094.84;4074980;29;20204;-53
2022/07/07 02:33:36;;;;;;;3.08;1.40;;;;;;;15.05;64.29;99096.72;4077742;29;20205;-53
2022/07/07 02:35:38;;;;;;;1.67;1.15;;;;;;;14.98;64.32;99087.84;4073832;29;20204;-53
2022/07/07 02:37:40;;;;;;;2.47;1.35;;;;;;;15.02;64.30;99076.00;4058441;29;20707;-54
2022/07/07 02:39:41;;;;;;;1.30;1.17;;;;;;;14.99;64.41;99076.56;4079375;29;20607;-54
2022/07/07 02:41:43;;;;;;;1.25;1.20;;;;;;;14.90;64.78;99077.31;4072536;29;20601;-53
2022/07/07 02:43:45;;;;;;;1.40;1.30;;;;;;;14.99;64.48;99075.72;4072713;29;21058;-53
2022/07/07 02:45:48;;;;;;;1.23;1.13;;;;;;;14.81;65.09;99065.94;4093076;28;20207;-54
2022/07/07 02:47:50;;;;;;;1.98;1.35;;;;;;;14.76;65.32;99063.13;4087533;29;20207;-56
2022/07/07 02:49:51;;;;;;;1.83;1.65;;;;;;;14.63;65.53;99066.34;4094697;29;20709;-54
2022/07/07 02:51:53;;;;;;;3.25;1.60;;;;;;;14.74;65.32;99068.09;4095218;29;20258;-55
2022/07/07 02:53:55;;;;;;;1.88;1.30;;;;;;;14.87;64.86;99072.31;4080290;29;20231;-54
2022/07/07 02:55:57;;;;;;;1.45;1.27;;;;;;;14.96;64.74;99081.78;4091732;29;20758;-54
2022/07/07 02:57:59;;;;;;;2.03;1.10;;;;;;;15.02;64.46;99081.53;4086590;29;20238;-56
2022/07/07 03:00:01;;;;;;;1.40;1.27;;;;;;;15.07;64.41;99080.72;4087701;29;20240;-54
2022/07/07 03:02:03;;;;;;;1.90;1.40;;;;;;;15.10;64.71;99083.78;4089447;29;20199;-54
2022/07/07 03:04:05;;;;;;;0.90;0.90;;;;;;;15.13;64.66;99083.28;4089060;28;20262;-53
2022/07/07 03:06:07;;;;;;;1.50;1.27;;;;;;;15.12;64.46;99081.63;4087908;29;20227;-54
2022/07/07 03:08:09;;;;;;;1.55;1.45;;;;;;;15.14;64.58;99084.09;4081528;29;20212;-55
2022/07/07 03:10:11;;;;;;;1.48;1.20;;;;;;;15.14;64.68;99084.09;4089250;28;20287;-54
2022/07/07 03:12:13;;;;;;;1.83;1.20;;;;;;;15.15;64.76;99086.59;4080313;29;20288;-53
2022/07/07 03:14:14;;;;;;;1.88;1.20;;;;;;;15.14;64.60;99079.41;4089850;29;20219;-54
2022/07/07 03:16:16;;;;;;;1.42;1.20;;;;;;;15.12;64.76;99081.63;4072538;29;20205;-53
2022/07/07 03:18:18;;;;;;;2.63;1.40;;;;;;;15.08;64.79;99083.22;4082040;29;20211;-54
2022/07/07 03:20:20;;;;;;;1.20;1.10;;;;;;;15.03;65.33;99082.38;4072883;29;20711;-54
2022/07/07 03:22:22;;;;;;;1.08;1.02;;;;;;;14.95;65.75;99080.94;4072831;29;20204;-54
2022/07/07 03:24:23;;;;;;;2.95;1.45;;;;;;;14.99;65.42;99087.59;4089575;28;20228;-53
2022/07/07 03:26:25;;;;;;;2.03;1.50;;;;;;;14.97;65.39;99078.72;4069295;29;20239;-54
2022/07/07 03:28:27;;;;;;;2.88;1.95;;;;;;;14.99;65.01;99087.59;4072399;29;20216;-54
2022/07/07 03:30:29;;;;;;;1.02;1.00;;;;;;;15.00;64.71;99078.22;4073873;29;20801;-54
2022/07/07 03:32:30;;;;;;;1.88;1.38;;;;;;;15.00;65.21;99077.38;4072637;29;20205;-53
2022/07/07 03:34:32;;;;;;;1.67;1.23;;;;;;;14.96;65.25;99077.06;4088818;29;20207;-53
2022/07/07 03:36:34;;;;;;;2.00;1.33;;;;;;;14.94;65.31;99081.19;4094656;28;20200;-54
2022/07/07 03:38:36;;;;;;;1.63;1.25;;;;;;;14.92;65.26;99069.59;4073005;29;20259;-54
2022/07/07 03:40:38;;;;;;;2.75;1.05;;;;;;;14.88;65.20;99069.31;4077539;29;20651;-53
2022/07/07 03:42:40;;;;;;;1.30;1.20;;;;;;;14.90;65.38;99066.28;4096470;28;20691;-54
2022/07/07 03:44:42;;;;;;;1.85;1.20;;;;;;;14.83;65.44;99062.94;4090445;28;20232;-53
2022/07/07 03:46:44;;;;;;;1.30;1.17;;;;;;;14.62;66.03;99070.19;4102176;28;20207;-53
2022/07/07 03:48:46;;;;;;;2.78;1.40;;;;;;;14.64;65.95;99073.50;4096527;29;20220;-54
2022/07/07 03:50:48;;;;;;;1.38;1.10;;;;;;;14.69;65.93;99070.78;4088838;29;20215;-53
2022/07/07 03:52:49;;;;;;;1.25;1.15;;;;;;;14.75;65.49;99071.66;4103867;28;20641;-53
2022/07/07 03:54:51;;;;;;;2.78;1.52;;;;;;;14.86;65.70;99076.16;4090937;29;20220;-54
2022/07/07 03:56:52;;;;;;;1.95;1.75;;;;;;;14.90;65.37;99069.84;4096941;29;20223;-54
2022/07/07 03:58:54;;;;;;;2.03;1.30;;;;;;;14.92;65.61;99067.69;4087781;29;20245;-53
2022/07/07 04:00:56;;;;;;;1.02;1.02;;;;;;;14.96;65.58;99073.50;4105138;28;20200;-54
2022/07/07 04:02:58;;;;;;;3.47;1.80;;;;;;;14.96;65.68;99068.81;4091515;28;20233;-54
2022/07/07 04:04:59;;;;;;;4.03;1.20;;;;;;;14.93;65.70;99066.59;4056418;29;20656;-54
2022/07/07 04:07:01;;;;;;;1.42;1.33;;;;;;;14.82;65.95;99059.34;4085133;29;20838;-53
2022/07/07 04:09:03;;;;;;;2.83;1.55;;;;;;;14.83;65.79;99065.69;4088743;29;20232;-53
2022/07/07 04:11:05;;;;;;;1.20;1.10;;;;;;;14.68;66.24;99068.28;4095583;29;20203;-54
2022/07/07 04:13:07;;;;;;;2.28;1.40;;;;;;;14.64;66.36;99070.75;4102435;28;20214;-53
2022/07/07 04:15:09;;;;;;;4.07;1.55;;;;;;;14.65;66.35;99063.31;4089911;29;20199;-54
2022/07/07 04:17:11;;;;;;;2.13;1.10;;;;;;;14.72;66.18;99064.78;4089391;29;20246;-53
2022/07/07 04:19:13;;;;;;;2.05;1.45;;;;;;;14.86;66.42;99066.00;4072684;29;20232;-53
2022/07/07 04:21:14;;;;;;;2.63;1.63;;;;;;;14.85;66.22;99063.50;4075815;29;20212;-54
2022/07/07 04:23:16;;;;;;;1.42;1.20;;;;;;;14.87;66.11;99067.66;4078433;29;20212;-54
2022/07/07 04:25:21;;;;;;;5.95;1.63;;;;;;;14.84;66.22;99065.41;4084372;29;20231;-53
2022/07/07 04:27:22;;;;;;;4.95;1.40;;;;;;;14.59;66.82;99051.44;4095408;28;20217;-55
2022/07/07 04:29:24;;;;;;;4.57;1.73;;;;;;;14.43;67.55;99043.31;4086910;29;20647;-53
2022/07/07 04:31:28;;;;;;;2.22;2.08;;;;;;;14.48;67.36;99046.94;4087425;29;20636;-53
2022/07/07 04:33:29;;;;;;;14.60;3.22;;;;;;;14.36;67.92;99049.03;4070133;29;20208;-53
2022/07/07 04:35:31;;;;;;;32.10;5.35;;;;;;;14.40;67.99;99055.69;4086568;28;20207;-53
2022/07/07 04:37:33;;;;;;;26.58;3.95;;;;;;;14.56;67.38;99059.41;4072016;29;20273;-54
2022/07/07 04:39:35;;;;;;;17.02;3.25;;;;;;;14.59;67.52;99054.19;4064283;29;20784;-53
2022/07/07 04:41:36;;;;;;;25.40;3.00;;;;;;;14.84;67.32;99051.63;4101744;28;20207;-54
2022/07/07 04:43:38;;;;;;;8.32;2.13;;;;;;;14.78;67.13;99041.69;4071203;29;20237;-52
2022/07/07 04:45:40;;;;;;;7.97;2.35;;;;;;;14.62;67.50;99031.63;4075632;29;20208;-53
2022/07/07 04:47:42;;;;;;;9.48;2.40;;;;;;;14.47;68.13;99039.75;4089419;29;20220;-53
2022/07/07 04:49:44;;;;;;;3.35;1.52;;;;;;;14.56;67.59;99032.66;4057517;29;20224;-53
2022/07/07 04:51:45;;;;;;;1.95;1.80;;;;;;;14.57;67.61;99042.59;4100467;28;20203;-56
2022/07/07 04:53:47;;;;;;;3.30;1.60;;;;;;;14.43;68.28;99046.88;4088887;28;20924;-53
2022/07/07 04:55:49;;;;;;;2.53;1.70;;;;;;;14.52;67.93;99042.56;4071699;29;20240;-53
2022/07/07 04:57:50;;;;;;;7.07;2.95;;;;;;;14.57;67.84;99048.09;4077097;29;20327;-54
2022/07/07 04:59:52;;;;;;;2.78;1.95;;;;;;;14.75;67.07;99044.94;4087598;29;20335;-53
2022/07/07 05:01:54;;;;;;;4.00;2.10;;;;;;;14.73;67.11;99044.41;4072655;29;20262;-54
2022/07/07 05:03:56;;;;;;;4.20;2.20;;;;;;;14.71;67.35;99046.56;4070646;29;20350;-53
2022/07/07 05:05:57;;;;;;;4.05;2.03;;;;;;;14.63;67.73;99044.28;4094675;29;20203;-55
2022/07/07 05:07:59;;;;;;;2.58;1.55;;;;;;;14.61;67.88;99048.41;4060681;29;20248;-54
2022/07/07 05:10:01;;;;;;;5.55;2.40;;;;;;;14.72;67.46;99045.50;4066245;29;20252;-54
2022/07/07 05:12:03;;;;;;;2.05;1.70;;;;;;;14.53;68.11;99054.41;4055953;29;20261;-53
2022/07/07 05:14:05;;;;;;;3.45;2.13;;;;;;;14.61;68.07;99046.50;4087661;29;20273;-54
2022/07/07 05:16:07;;;;;;;7.93;2.30;;;;;;;14.71;67.93;99054.00;4076605;29;20267;-55
2022/07/07 05:18:09;;;;;;;3.63;1.83;;;;;;;14.80;67.60;99049.66;4102367;28;20255;-54
2022/07/07 05:20:11;;;;;;;3.75;2.25;;;;;;;14.80;67.82;99041.41;4071269;29;20236;-54
2022/07/07 05:22:13;;;;;;;9.23;2.88;;;;;;;14.91;67.13;99046.72;4070258;29;20212;-54
2022/07/07 05:24:14;;;;;;;2.63;1.80;;;;;;;14.76;67.77;99052.13;4084365;29;20240;-54
2022/07/07 05:26:16;;;;;;;3.05;1.85;;;;;;;14.90;67.80;99053.31;4062044;29;20235;-55
2022/07/07 05:28:18;;;;;;;2.35;1.70;;;;;;;14.95;67.00;99047.00;4086074;29;20208;-54
2022/07/07 05:30:20;;;;;;;11.35;4.07;;;;;;;14.98;67.28;99041.84;4099629;28;20848;-54
2022/07/07 05:32:22;;;;;;;2.70;1.38;;;;;;;15.00;67.24;99045.13;4074006;29;20204;-54
2022/07/07 05:34:23;;;;;;;3.40;2.08;;;;;;;15.00;67.29;99039.63;4084212;29;20207;-55
2022/07/07 05:36:25;;;;;;;4.65;2.05;;;;;;;15.13;67.08;99035.56;4087635;29;20200;-55
2022/07/07 05:38:27;;;;;;;3.28;2.20;;;;;;;15.28;66.57;99039.25;4095385;29;20262;-55
2022/07/07 05:40:29;;;;;;;2.85;2.30;;;;;;;15.56;66.11;99027.81;4086879;29;20293;-55
2022/07/07 05:42:30;;;;;;;4.97;2.92;;;;;;;15.49;66.62;99027.25;4071648;29;20275;-55
2022/07/07 05:44:32;;;;;;;4.85;2.80;;;;;;;15.50;67.10;99039.13;4066364;29;20224;-54
2022/07/07 05:46:34;;;;;;;5.35;2.20;;;;;;;15.62;66.10;99032.25;4072513;29;20208;-54
2022/07/07 05:48:36;;;;;;;7.13;2.17;;;;;;;15.67;66.55;99031.44;4077953;29;20216;-54
2022/07/07 05:50:37;;;;;;;5.15;2.72;;;;;;;15.71;65.86;99033.38;4067793;29;20232;-54
2022/07/07 05:52:39;;;;;;;4.22;2.45;;;;;;;15.82;65.69;99037.03;4068559;29;20209;-54
2022/07/07 05:54:41;;;;;;;5.43;3.03;;;;;;;15.84;66.17;99052.22;4062705;29;20217;-54
2022/07/07 05:56:42;;;;;;;3.58;2.95;;;;;;;15.95;65.90;99048.38;4069813;29;20208;-54
2022/07/07 05:58:44;;;;;;;3.20;2.50;;;;;;;16.01;65.41;99052.81;4084440;29;20208;-54
2022/07/07 06:00:47;;;;;;;5.22;2.70;;;;;;;16.10;65.32;99053.94;4109313;28;20265;-54
2022/07/07 06:02:49;;;;;;;4.25;3.33;;;;;;;16.17;65.68;99056.47;4072054;29;20207;-53
2022/07/07 06:04:51;;;;;;;5.68;2.88;;;;;;;16.25;65.31;99054.00;4084453;29;20236;-53
2022/07/07 06:06:56;;;;;;;6.00;3.72;;;;;;;16.26;65.63;99043.75;4087662;29;20295;-54
2022/07/07 06:08:58;;;;;;;5.03;3.30;;;;;;;16.19;65.66;99048.72;4067981;29;20232;-55
2022/07/07 06:11:00;;;;;;;8.23;4.18;;;;;;;16.19;65.78;99055.09;4077928;29;20234;-54
2022/07/07 06:13:02;;;;;;;7.05;4.18;;;;;;;16.23;65.53;99045.13;4069430;29;20204;-53
2022/07/07 06:15:04;;;;;;;8.05;4.22;;;;;;;16.17;66.37;99046.22;4087594;28;20683;-54
2022/07/07 06:17:06;;;;;;;9.45;4.70;;;;;;;16.22;65.92;99043.47;4084120;28;20299;-54
2022/07/07 06:19:09;;;;;;;7.85;4.22;;;;;;;16.24;65.77;99048.75;4066623;29;20232;-54
2022/07/07 06:21:11;;;;;;;12.25;4.68;;;;;;;16.25;65.67;99042.94;4069385;29;20212;-54
2022/07/07 06:23:13;;;;;;;7.93;4.72;;;;;;;16.28;65.83;99041.53;4076805;29;20684;-54
2022/07/07 06:25:15;;;;;;;7.70;4.38;;;;;;;16.16;66.01;99036.28;4077488;29;20271;-54
2022/07/07 06:27:17;;;;;;;5.95;3.50;;;;;;;16.22;66.10;99037.97;4085091;29;20631;-53
2022/07/07 06:29:19;;;;;;;6.60;4.15;;;;;;;16.16;66.06;99043.75;4082726;29;20330;-53
2022/07/07 06:31:20;;;;;;;7.63;4.57;;;;;;;16.19;66.26;99037.69;4085147;29;20663;-53
2022/07/07 06:33:22;;;;;;;5.47;4.20;;;;;;;16.12;66.41;99037.97;4084563;29;20208;-54
2022/07/07 06:35:26;;;;;;;5.55;3.92;;;;;;;16.12;66.60;99049.00;4100267;28;20242;-53
2022/07/07 06:37:27;;;;;;;4.53;3.60;;;;;;;16.19;66.38;99046.81;4085875;29;20203;-54
2022/07/07 06:39:29;;;;;;;6.00;3.85;;;;;;;16.27;66.10;99035.22;4070376;29;20279;-53
2022/07/07 06:41:35;;;;;;;5.28;3.60;;;;;;;16.25;66.18;99036.59;4068342;29;20648;-54
2022/07/07 06:43:37;;;;;;;7.13;3.38;;;;;;;16.24;66.71;99041.28;4083989;29;20219;-53
2022/07/07 06:45:38;;;;;;;4.45;3.58;;;;;;;16.27;66.77;99029.69;4085590;29;20603;-54
2022/07/07 06:47:40;;;;;;;8.95;3.70;;;;;;;16.29;66.54;99033.00;4085519;29;20211;-53
2022/07/07 06:49:42;;;;;;;8.57;2.97;;;;;;;16.41;66.22;99041.88;4068491;29;20236;-53
2022/07/07 06:51:47;;;;;;;3.50;3.05;;;;;;;16.29;66.71;99041.28;4077146;29;20208;-53
2022/07/07 06:53:49;;;;;;;5.45;3.83;;;;;;;16.34;66.55;99041.31;4075506;29;20259;-54
2022/07/07 06:55:51;;;;;;;6.22;2.35;;;;;;;16.42;66.51;99049.06;4101740;28;20202;-53
2022/07/07 06:57:52;;;;;;;4.35;3.25;;;;;;;16.42;66.92;99049.06;4103170;28;20734;-54
2022/07/07 06:59:54;;;;;;;5.95;3.67;;;;;;;16.45;67.02;99054.06;4077000;29;20251;-53
2022/07/07 07:01:56;;;;;;;10.88;3.03;;;;;;;16.56;66.98;99061.25;4076546;29;20216;-54
2022/07/07 07:03:58;;;;;;;4.50;3.00;;;;;;;16.63;66.76;99064.56;4072637;29;20208;-54
2022/07/07 07:06:00;;;;;;;4.00;3.15;;;;;;;16.65;66.88;99065.13;4100987;28;20373;-55
2022/07/07 07:08:02;;;;;;;9.38;2.80;;;;;;;16.67;66.81;99060.16;4084562;29;20207;-54
2022/07/07 07:10:06;;;;;;;3.35;2.35;;;;;;;16.78;66.81;99064.59;4070266;29;20276;-54
2022/07/07 07:12:09;;;;;;;5.05;3.13;;;;;;;16.72;66.72;99068.44;4087176;29;20268;-54
2022/07/07 07:14:10;;;;;;;5.93;3.45;;;;;;;16.70;66.32;99062.34;4087385;29;20222;-54
2022/07/07 07:16:12;;;;;;;6.03;3.17;;;;;;;16.76;66.72;99060.44;4073666;29;20225;-57
2022/07/07 07:18:14;;;;;;;4.20;3.05;;;;;;;16.77;66.50;99057.38;4087094;29;20244;-55
2022/07/07 07:20:16;;;;;;;5.65;3.08;;;;;;;16.74;66.53;99049.66;4079695;29;20247;-55
2022/07/07 07:22:18;;;;;;;4.50;2.75;;;;;;;16.80;66.81;99062.38;4090014;29;20207;-53
2022/07/07 07:24:19;;;;;;;5.75;3.10;;;;;;;16.95;66.26;99059.59;4095035;29;20211;-54
2022/07/07 07:26:21;;;;;;;3.38;2.45;;;;;;;17.02;66.30;99052.69;4088647;28;20255;-54
2022/07/07 07:28:23;;;;;;;5.05;2.70;;;;;;;16.96;66.51;99061.25;4086808;29;20759;-56
2022/07/07 07:30:25;;;;;;;4.15;2.80;;;;;;;17.01;66.80;99061.25;4085301;29;20237;-55
2022/07/07 07:32:27;;;;;;;10.55;3.05;;;;;;;16.96;66.69;99066.78;4079363;28;20598;-54
2022/07/07 07:34:29;;;;;;;3.97;2.92;;;;;;;17.02;66.58;99065.66;4088170;29;20268;-55
2022/07/07 07:36:30;;;;;;;5.07;2.53;;;;;;;17.12;67.25;99066.47;4096984;29;20258;-55
2022/07/07 07:38:32;;;;;;;3.55;2.67;;;;;;;17.26;66.85;99066.75;4097905;29;20636;-54
2022/07/07 07:40:34;;;;;;;3.58;2.88;;;;;;;17.41;66.34;99078.66;4088925;29;20251;-54
2022/07/07 07:42:37;;;;;;;4.05;2.65;;;;;;;17.38;66.66;99081.16;4092798;28;20211;-54
2022/07/07 07:46:59;;;;;;;4.55;2.35;;;;;;;17.42;66.11;99079.47;4090556;29;20240;-55
2022/07/07 07:49:05;;;;;;;4.07;2.45;;;;;;;17.42;66.37;99082.22;4075901;29;20678;-55
2022/07/07 07:51:06;;;;;;;4.82;2.38;;;;;;;17.40;66.41;99081.69;4072579;29;20707;-55
2022/07/07 07:53:08;;;;;;;5.60;2.17;;;;;;;17.54;66.27;99079.97;4075675;29;20196;-54
2022/07/07 07:55:12;;;;;;;4.35;3.65;;;;;;;17.69;66.73;99099.31;4102783;28;20211;-54
2022/07/07 07:57:13;;;;;;;5.10;2.80;;;;;;;17.72;66.78;99088.50;4085448;29;20910;-54
2022/07/07 07:59:15;;;;;;;11.07;2.70;;;;;;;17.80;66.33;99095.41;4092755;28;20243;-54
2022/07/07 08:01:17;;;;;;;2.78;2.25;;;;;;;17.75;66.24;99092.66;4090600;29;20211;-54
2022/07/07 08:03:19;;;;;;;3.20;2.20;;;;;;;17.80;66.24;99087.09;4091081;28;20217;-55
2022/07/07 08:05:20;;;;;;;4.72;2.63;;;;;;;17.74;66.36;99091.84;4088996;29;20239;-55
2022/07/07 08:07:22;;;;;;;2.55;2.00;;;;;;;17.73;66.73;99089.34;4086702;29;20215;-54
2022/07/07 08:09:24;;;;;;;3.00;2.40;;;;;;;17.66;66.94;99088.81;4070669;29;20232;-55
2022/07/07 08:11:26;;;;;;;2.55;2.20;;;;;;;17.73;66.94;99081.03;4077407;29;20219;-54
2022/07/07 08:13:27;;;;;;;3.78;2.15;;;;;;;17.59;67.27;99074.44;4072463;29;20272;-55
2022/07/07 08:15:30;;;;;;;3.22;2.00;;;;;;;17.52;67.28;99071.16;4085316;28;20290;-55
2022/07/07 08:17:31;;;;;;;2.70;2.13;;;;;;;17.41;67.89;99069.50;4075332;29;20366;-54
2022/07/07 08:19:33;;;;;;;4.45;2.60;;;;;;;17.58;67.74;99061.72;4070549;29;20861;-55
2022/07/07 08:21:35;;;;;;;4.18;2.45;;;;;;;17.37;68.56;99074.75;4088580;29;20256;-54
2022/07/07 08:23:37;;;;;;;4.90;3.00;;;;;;;17.35;68.32;99065.91;4070570;29;20719;-54
2022/07/07 08:25:39;;;;;;;3.47;2.83;;;;;;;17.40;68.32;99057.59;4069510;29;20228;-55
2022/07/07 08:27:41;;;;;;;5.07;3.05;;;;;;;17.54;68.05;99052.31;4089303;29;20320;-54
2022/07/07 08:29:43;;;;;;;4.90;2.72;;;;;;;17.52;68.79;99049.81;4087017;29;20239;-55
2022/07/07 08:31:44;;;;;;;3.80;2.60;;;;;;;17.44;69.04;99044.06;4071711;29;20211;-55
2022/07/07 08:33:46;;;;;;;3.33;2.00;;;;;;;17.58;68.49;99042.34;4086151;29;20224;-53
2022/07/07 08:35:48;;;;;;;7.30;2.75;;;;;;;17.67;67.61;99051.72;4071393;29;20263;-55
2022/07/07 08:37:50;;;;;;;3.90;3.28;;;;;;;17.65;68.15;99051.16;4093810;29;20242;-55
2022/07/07 08:39:51;;;;;;;9.80;3.30;;;;;;;17.76;68.01;99055.53;4069254;29;20288;-55
2022/07/07 08:41:53;;;;;;;3.47;2.30;;;;;;;17.85;68.01;99048.31;4088012;29;20286;-55
2022/07/07 08:43:56;;;;;;;12.27;2.47;;;;;;;18.01;67.58;99058.19;4110664;28;20206;-53
2022/07/07 08:45:57;;;;;;;4.18;2.55;;;;;;;18.18;67.24;99058.69;4086466;29;20233;-53
2022/07/07 08:48:00;;;;;;;2.55;2.20;;;;;;;18.35;67.00;99065.53;4071543;29;21026;-54
2022/07/07 08:50:02;;;;;;;5.18;2.67;;;;;;;18.41;67.28;99058.00;4086479;29;20792;-54
2022/07/07 08:52:04;;;;;;;6.38;2.40;;;;;;;18.52;66.89;99059.59;4086530;29;21408;-54
2022/07/07 08:54:06;;;;;;;3.03;2.20;;;;;;;18.49;66.60;99054.59;4094512;28;20215;-54
2022/07/07 08:56:08;;;;;;;4.10;2.42;;;;;;;18.35;67.09;99061.91;4072186;29;20203;-54
2022/07/07 08:58:11;;;;;;;4.82;2.65;;;;;;;18.25;67.46;99053.66;4078703;29;21135;-53
2022/07/07 09:00:13;;;;;;;6.63;2.13;;;;;;;18.43;67.05;99044.66;4077302;29;20240;-53
2022/07/07 09:02:15;;;;;;;4.45;2.90;;;;;;;18.53;66.58;99045.41;4100204;28;20210;-54
2022/07/07 09:04:17;;;;;;;5.95;2.85;;;;;;;18.65;66.46;99054.22;4102440;28;20219;-53
2022/07/07 09:06:19;;;;;;;8.43;2.88;;;;;;;18.68;66.65;99059.19;4071779;29;20711;-54
2022/07/07 09:08:27;;;;;;;4.75;2.38;;;;;;;18.76;66.25;99066.03;4086466;29;20212;-53
2022/07/07 09:10:31;;;;;;;7.03;3.45;;;;;;;18.69;66.31;99058.06;4057739;29;20324;-54
2022/07/07 09:12:32;;;;;;;8.13;2.72;;;;;;;18.74;66.17;99058.03;4075052;29;20233;-53
2022/07/07 09:14:40;;;;;;;3.42;2.50;;;;;;;18.73;66.17;99061.09;4062534;29;20205;-55
2022/07/07 09:16:43;;;;;;;3.55;2.90;;;;;;;18.88;66.23;99050.72;4067885;29;20218;-53
2022/07/07 09:18:46;;;;;;;4.47;2.55;;;;;;;19.00;66.21;99051.16;4061259;29;20232;-53
2022/07/07 09:20:48;;;;;;;3.85;2.83;;;;;;;19.08;65.63;99058.84;4080440;29;20222;-54
2022/07/07 09:22:53;;;;;;;5.18;2.60;;;;;;;19.34;65.33;99068.63;4068235;29;20595;-53
2022/07/07 09:25:07;;;;;;;3.17;1.95;;;;;;;19.64;65.04;99062.72;4084941;29;20200;-52
2022/07/07 09:27:10;;;;;;;4.55;2.97;;;;;;;19.53;64.88;99057.59;4079528;29;20220;-54
2022/07/07 09:29:18;;;;;;;3.53;2.22;;;;;;;19.70;64.34;99066.25;4086289;29;20271;-53
2022/07/07 09:31:19;;;;;;;4.28;2.40;;;;;;;19.85;63.66;99054.97;4089162;29;20255;-53
2022/07/07 09:33:26;;;;;;;10.32;2.30;;;;;;;19.84;63.92;99051.38;4079675;29;20238;-53
2022/07/07 09:38:14;;;;;;;3.90;2.10;;;;;;;19.87;64.52;99061.06;4089299;29;20215;-54
2022/07/07 09:40:18;;;;;;;3.47;2.03;;;;;;;20.01;63.58;99050.88;4092508;29;20339;-53